sensor_id;sensor_type;location;lat;lon;timestamp;pressure;altitude;pressure_sealevel;temperature;humidity
60307;BME280;46155;52.364;6.580;2023-04-09T03:01:47;102307.38;;;8.34;100.00
60307;BME280;46155;52.364;6.580;2023-04-09T03:04:12;102297.25;;;8.28;100.00
60307;BME280;46155;52.364;6.580;2023-04-09T03:06:37;102300.28;;;8.33;100.00
60307;BME280;46155;52.364;6.580;2023-04-09T03:09:02;102299.22;;;8.31;100.00
60307;BME280;46155;52.364;6.580;2023-04-09T03:11:28;102300.78;;;8.28;100.00
60307;BME280;46155;52.364;6.580;2023-04-09T03:13:53;102299.72;;;8.26;100.00
60307;BME280;46155;52.364;6.580;2023-04-09T03:16:18;102295.25;;;8.25;100.00
60307;BME280;46155;52.364;6.580;2023-04-09T03:18:44;102297.00;;;8.16;100.00
60307;BME280;46155;52.364;6.580;2023-04-09T03:21:09;102294.88;;;8.12;100.00
60307;BME280;46155;52.364;6.580;2023-04-09T03:23:35;102296.78;;;8.23;100.00
60307;BME280;46155;52.364;6.580;2023-04-09T03:26:02;102293.97;;;8.31;100.00
60307;BME280;46155;52.364;6.580;2023-04-09T03:28:28;102293.69;;;8.27;100.00
60307;BME280;46155;52.364;6.580;2023-04-09T03:30:53;102297.81;;;8.34;100.00
60307;BME280;46155;52.364;6.580;2023-04-09T03:33:18;102297.03;;;8.35;100.00
60307;BME280;46155;52.364;6.580;2023-04-09T03:35:43;102302.41;;;8.37;100.00
60307;BME280;46155;52.364;6.580;2023-04-09T03:38:09;102302.69;;;8.40;100.00
60307;BME280;46155;52.364;6.580;2023-04-09T03:40:34;102301.00;;;8.40;100.00
60307;BME280;46155;52.364;6.580;2023-04-09T03:43:00;102302.41;;;8.37;100.00
60307;BME280;46155;52.364;6.580;2023-04-09T03:45:25;102299.66;;;8.35;100.00
60307;BME280;46155;52.364;6.580;2023-04-09T03:47:51;102300.56;;;8.36;100.00
60307;BME280;46155;52.364;6.580;2023-04-09T03:50:16;102305.03;;;8.37;100.00
60307;BME280;46155;52.364;6.580;2023-04-09T03:52:41;102300.16;;;8.31;100.00
60307;BME280;46155;52.364;6.580;2023-04-09T03:55:07;102294.78;;;8.30;100.00
60307;BME280;46155;52.364;6.580;2023-04-09T03:57:33;102305.53;;;8.33;100.00
60307;BME280;46155;52.364;6.580;2023-04-09T03:59:58;102295.06;;;8.33;100.00
60307;BME280;46155;52.364;6.580;2023-04-09T04:02:23;102293.22;;;8.32;100.00
60307;BME280;46155;52.364;6.580;2023-04-09T04:04:50;102294.28;;;8.34;100.00
60307;BME280;46155;52.364;6.580;2023-04-09T04:07:16;102295.81;;;8.32;100.00
60307;BME280;46155;52.364;6.580;2023-04-09T04:09:42;102287.06;;;8.31;100.00
60307;BME280;46155;52.364;6.580;2023-04-09T04:12:07;102297.25;;;8.28;100.00
60307;BME280;46155;52.364;6.580;2023-04-09T04:14:32;102296.44;;;8.29;100.00
60307;BME280;46155;52.364;6.580;2023-04-09T04:16:58;102293.97;;;8.31;100.00
60307;BME280;46155;52.364;6.580;2023-04-09T04:19:24;102299.41;;;8.23;100.00
60307;BME280;46155;52.364;6.580;2023-04-09T04:21:49;102293.47;;;8.16;100.00
60307;BME280;46155;52.364;6.580;2023-04-09T04:24:14;102291.75;;;8.16;100.00
60307;BME280;46155;52.364;6.580;2023-04-09T04:26:40;102292.06;;;8.19;100.00
60307;BME280;46155;52.364;6.580;2023-04-09T04:29:05;102295.75;;;8.21;100.00
60307;BME280;46155;52.364;6.580;2023-04-09T04:31:30;102300.06;;;8.21;100.00
60307;BME280;46155;52.364;6.580;2023-04-09T04:33:56;102289.00;;;8.15;100.00
60307;BME280;46155;52.364;6.580;2023-04-09T04:36:21;102291.75;;;8.16;100.00
60307;BME280;46155;52.364;6.580;2023-04-09T04:38:46;102283.63;;;8.13;100.00
60307;BME280;46155;52.364;6.580;2023-04-09T04:41:11;102291.28;;;8.20;100.00
60307;BME280;46155;52.364;6.580;2023-04-09T04:43:37;102303.16;;;8.17;100.00
60307;BME280;46155;52.364;6.580;2023-04-09T04:46:02;102295.19;;;8.15;100.00
60307;BME280;46155;52.364;6.580;2023-04-09T04:48:28;102300.56;;;8.17;100.00
60307;BME280;46155;52.364;6.580;2023-04-09T04:50:57;102301.94;;;8.13;100.00
60307;BME280;46155;52.364;6.580;2023-04-09T04:53:22;102300.09;;;8.12;100.00
60307;BME280;46155;52.364;6.580;2023-04-09T04:55:48;102299.81;;;8.09;100.00
60307;BME280;46155;52.364;6.580;2023-04-09T04:58:13;102303.50;;;8.11;100.00
60307;BME280;46155;52.364;6.580;2023-04-09T05:00:38;102303.19;;;8.08;100.00
60307;BME280;46155;52.364;6.580;2023-04-09T05:03:03;102298.75;;;8.07;100.00
60307;BME280;46155;52.364;6.580;2023-04-09T05:05:29;102303.25;;;7.99;100.00
60307;BME280;46155;52.364;6.580;2023-04-09T05:07:54;102298.63;;;7.97;100.00
60307;BME280;46155;52.364;6.580;2023-04-09T05:10:19;102290.97;;;7.89;100.00
60307;BME280;46155;52.364;6.580;2023-04-09T05:12:45;102297.44;;;7.93;100.00
60307;BME280;46155;52.364;6.580;2023-04-09T05:15:10;102297.78;;;7.87;100.00
60307;BME280;46155;52.364;6.580;2023-04-09T05:17:35;102295.75;;;7.93;100.00
60307;BME280;46155;52.364;6.580;2023-04-09T05:20:01;102294.06;;;7.94;100.00
60307;BME280;46155;52.364;6.580;2023-04-09T05:22:26;102296.53;;;7.92;100.00
60307;BME280;46155;52.364;6.580;2023-04-09T05:24:51;102298.84;;;7.89;100.00
60307;BME280;46155;52.364;6.580;2023-04-09T05:27:18;102296.06;;;7.88;100.00
60307;BME280;46155;52.364;6.580;2023-04-09T05:29:43;102303.59;;;7.93;100.00
60307;BME280;46155;52.364;6.580;2023-04-09T05:32:09;102305.44;;;7.95;100.00
60307;BME280;46155;52.364;6.580;2023-04-09T05:34:34;102299.00;;;7.91;100.00
60307;BME280;46155;52.364;6.580;2023-04-09T05:37:00;102302.72;;;7.84;100.00
60307;BME280;46155;52.364;6.580;2023-04-09T05:39:25;102293.78;;;7.82;100.00
60307;BME280;46155;52.364;6.580;2023-04-09T05:41:51;102297.22;;;7.81;100.00
60307;BME280;46155;52.364;6.580;2023-04-09T05:44:16;102303.06;;;7.79;100.00
60307;BME280;46155;52.364;6.580;2023-04-09T05:46:42;102295.53;;;7.73;100.00
60307;BME280;46155;52.364;6.580;2023-04-09T05:49:07;102297.22;;;7.72;100.00
60307;BME280;46155;52.364;6.580;2023-04-09T05:51:33;102294.78;;;7.74;100.00
60307;BME280;46155;52.364;6.580;2023-04-09T05:53:58;102296.78;;;7.68;100.00
60307;BME280;46155;52.364;6.580;2023-04-09T05:56:23;102304.34;;;7.65;100.00
60307;BME280;46155;52.364;6.580;2023-04-09T05:58:49;102299.09;;;7.65;100.00
60307;BME280;46155;52.364;6.580;2023-04-09T06:01:15;102298.81;;;7.62;100.00
60307;BME280;46155;52.364;6.580;2023-04-09T06:03:40;102295.13;;;7.59;100.00
60307;BME280;46155;52.364;6.580;2023-04-09T06:06:06;102298.53;;;7.58;100.00
60307;BME280;46155;52.364;6.580;2023-04-09T06:08:31;102292.34;;;7.58;100.00
60307;BME280;46155;52.364;6.580;2023-04-09T06:10:57;102295.91;;;7.58;100.00
60307;BME280;46155;52.364;6.580;2023-04-09T06:13:23;102291.75;;;7.61;100.00
60307;BME280;46155;52.364;6.580;2023-04-09T06:15:48;102301.53;;;7.72;100.00
60307;BME280;46155;52.364;6.580;2023-04-09T06:18:14;102293.25;;;7.67;100.00
60307;BME280;46155;52.364;6.580;2023-04-09T06:20:39;102306.84;;;7.91;100.00
60307;BME280;46155;52.364;6.580;2023-04-09T06:23:05;102317.41;;;8.01;100.00
60307;BME280;46155;52.364;6.580;2023-04-09T06:25:30;102323.16;;;8.16;100.00
60307;BME280;46155;52.364;6.580;2023-04-09T06:27:56;102320.47;;;8.34;100.00
60307;BME280;46155;52.364;6.580;2023-04-09T06:30:21;102329.47;;;8.46;100.00
60307;BME280;46155;52.364;6.580;2023-04-09T06:32:47;102325.13;;;8.55;100.00
60307;BME280;46155;52.364;6.580;2023-04-09T06:35:13;102324.75;;;8.61;100.00
60307;BME280;46155;52.364;6.580;2023-04-09T06:37:39;102332.06;;;8.74;100.00
60307;BME280;46155;52.364;6.580;2023-04-09T06:40:05;102328.88;;;8.68;100.00
60307;BME280;46155;52.364;6.580;2023-04-09T06:42:31;102322.34;;;8.73;100.00
60307;BME280;46155;52.364;6.580;2023-04-09T06:44:56;102334.19;;;8.78;100.00
60307;BME280;46155;52.364;6.580;2023-04-09T06:47:21;102333.44;;;8.51;100.00
60307;BME280;46155;52.364;6.580;2023-04-09T06:49:47;102326.72;;;8.44;100.00
60307;BME280;46155;52.364;6.580;2023-04-09T06:52:12;102323.88;;;8.52;100.00
60307;BME280;46155;52.364;6.580;2023-04-09T06:54:37;102324.63;;;8.59;100.00
60307;BME280;46155;52.364;6.580;2023-04-09T06:57:03;102323.16;;;8.72;100.00
60307;BME280;46155;52.364;6.580;2023-04-09T06:59:28;102321.72;;;8.94;100.00
60307;BME280;46155;52.364;6.580;2023-04-09T07:01:53;102301.13;;;9.18;100.00
60307;BME280;46155;52.364;6.580;2023-04-09T07:04:18;102315.22;;;9.58;100.00
60307;BME280;46155;52.364;6.580;2023-04-09T07:06:44;102317.88;;;9.69;98.21
60307;BME280;46155;52.364;6.580;2023-04-09T07:09:09;102319.00;;;9.62;95.26
60307;BME280;46155;52.364;6.580;2023-04-09T07:11:35;102322.56;;;9.04;96.44
60307;BME280;46155;52.364;6.580;2023-04-09T07:14:01;102329.50;;;9.03;97.74
60307;BME280;46155;52.364;6.580;2023-04-09T07:16:26;102314.22;;;9.37;99.03
60307;BME280;46155;52.364;6.580;2023-04-09T07:18:51;102324.88;;;9.49;95.75
60307;BME280;46155;52.364;6.580;2023-04-09T07:21:16;102324.03;;;9.40;96.96
60307;BME280;46155;52.364;6.580;2023-04-09T07:23:42;102327.16;;;9.65;95.79
60307;BME280;46155;52.364;6.580;2023-04-09T07:26:09;102324.66;;;9.67;97.78
60307;BME280;46155;52.364;6.580;2023-04-09T07:28:34;102326.06;;;10.03;96.51
60307;BME280;46155;52.364;6.580;2023-04-09T07:31:00;102322.28;;;9.59;93.92
60307;BME280;46155;52.364;6.580;2023-04-09T07:33:27;102328.22;;;9.38;95.27
60307;BME280;46155;52.364;6.580;2023-04-09T07:35:52;102329.84;;;9.46;96.54
60307;BME280;46155;52.364;6.580;2023-04-09T07:38:17;102333.22;;;9.74;95.93
60307;BME280;46155;52.364;6.580;2023-04-09T07:40:43;102329.47;;;10.02;95.79
60307;BME280;46155;52.364;6.580;2023-04-09T07:43:08;102332.06;;;10.41;94.80
60307;BME280;46155;52.364;6.580;2023-04-09T07:45:33;102332.47;;;10.56;92.25
60307;BME280;46155;52.364;6.580;2023-04-09T07:47:58;102337.97;;;10.59;92.65
60307;BME280;46155;52.364;6.580;2023-04-09T07:50:24;102340.84;;;10.52;92.10
60307;BME280;46155;52.364;6.580;2023-04-09T07:52:50;102335.59;;;10.62;92.68
60307;BME280;46155;52.364;6.580;2023-04-09T07:55:15;102336.38;;;10.51;89.04
60307;BME280;46155;52.364;6.580;2023-04-09T07:57:40;102334.28;;;10.47;91.72
60307;BME280;46155;52.364;6.580;2023-04-09T08:00:07;102337.13;;;10.91;93.93
60307;BME280;46155;52.364;6.580;2023-04-09T08:02:33;102328.34;;;10.80;89.30
60307;BME280;46155;52.364;6.580;2023-04-09T08:04:58;102332.59;;;10.58;89.68
60307;BME280;46155;52.364;6.580;2023-04-09T08:07:24;102344.22;;;10.92;93.84
60307;BME280;46155;52.364;6.580;2023-04-09T08:09:49;102343.44;;;10.83;88.74
60307;BME280;46155;52.364;6.580;2023-04-09T08:12:14;102341.19;;;10.15;90.37
60307;BME280;46155;52.364;6.580;2023-04-09T08:14:40;102334.53;;;10.40;93.95
60307;BME280;46155;52.364;6.580;2023-04-09T08:17:05;102339.38;;;10.87;93.45
60307;BME280;46155;52.364;6.580;2023-04-09T08:19:30;102329.81;;;11.19;89.36
60307;BME280;46155;52.364;6.580;2023-04-09T08:21:56;102332.16;;;10.53;87.36
60307;BME280;46155;52.364;6.580;2023-04-09T08:24:22;102326.13;;;10.85;90.68
60307;BME280;46155;52.364;6.580;2023-04-09T08:26:48;102333.94;;;11.16;89.20
60307;BME280;46155;52.364;6.580;2023-04-09T08:29:13;102337.28;;;11.35;88.54
60307;BME280;46155;52.364;6.580;2023-04-09T08:31:39;102323.44;;;11.70;89.03
60307;BME280;46155;52.364;6.580;2023-04-09T08:34:05;102336.22;;;11.33;84.35
60307;BME280;46155;52.364;6.580;2023-04-09T08:36:30;102339.47;;;10.98;86.70
60307;BME280;46155;52.364;6.580;2023-04-09T08:38:56;102331.84;;;11.12;91.09
60307;BME280;46155;52.364;6.580;2023-04-09T08:41:23;102329.75;;;11.73;91.14
60307;BME280;46155;52.364;6.580;2023-04-09T08:43:50;102335.50;;;12.23;86.28
60307;BME280;46155;52.364;6.580;2023-04-09T08:46:17;102337.88;;;12.42;82.74
60307;BME280;46155;52.364;6.580;2023-04-09T08:48:44;102335.16;;;12.64;82.00
60307;BME280;46155;52.364;6.580;2023-04-09T08:51:20;102331.75;;;12.65;81.51
60307;BME280;46155;52.364;6.580;2023-04-09T08:54:05;102335.44;;;12.67;82.47
60307;BME280;46155;52.364;6.580;2023-04-09T08:56:31;102336.78;;;12.74;81.24
60307;BME280;46155;52.364;6.580;2023-04-09T08:58:56;102325.63;;;13.00;82.84
60307;BME280;46155;52.364;6.580;2023-04-09T09:01:26;102328.47;;;13.27;83.58
60307;BME280;46155;52.364;6.580;2023-04-09T09:04:03;102323.56;;;13.20;77.10
60307;BME280;46155;52.364;6.580;2023-04-09T09:06:36;102323.31;;;13.40;78.98
60307;BME280;46155;52.364;6.580;2023-04-09T09:09:10;102320.09;;;13.21;75.38
60307;BME280;46155;52.364;6.580;2023-04-09T09:14:09;102323.56;;;13.20;75.86
60307;BME280;46155;52.364;6.580;2023-04-09T09:16:37;102316.56;;;13.20;78.87
60307;BME280;46155;52.364;6.580;2023-04-09T09:19:08;102323.19;;;13.63;75.95
60307;BME280;46155;52.364;6.580;2023-04-09T09:21:34;102324.03;;;13.87;74.84
60307;BME280;46155;52.364;6.580;2023-04-09T09:24:01;102317.69;;;13.97;73.57
60307;BME280;46155;52.364;6.580;2023-04-09T09:26:28;102317.91;;;14.00;69.65
60307;BME280;46155;52.364;6.580;2023-04-09T09:28:55;102309.13;;;14.12;72.58
60307;BME280;46155;52.364;6.580;2023-04-09T09:31:22;102309.41;;;14.29;71.62
60307;BME280;46155;52.364;6.580;2023-04-09T09:33:48;102309.44;;;14.42;71.37
60307;BME280;46155;52.364;6.580;2023-04-09T09:36:29;102306.50;;;14.26;67.97
60307;BME280;46155;52.364;6.580;2023-04-09T09:38:56;102295.72;;;14.09;69.96
60307;BME280;46155;52.364;6.580;2023-04-09T09:41:23;102302.38;;;14.29;71.60
60307;BME280;46155;52.364;6.580;2023-04-09T09:43:49;102305.13;;;14.31;67.42
60307;BME280;46155;52.364;6.580;2023-04-09T09:46:15;102294.94;;;14.24;67.63
60307;BME280;46155;52.364;6.580;2023-04-09T09:48:41;102306.09;;;14.20;66.32
60307;BME280;46155;52.364;6.580;2023-04-09T09:51:08;102305.69;;;14.14;67.62
60307;BME280;46155;52.364;6.580;2023-04-09T09:53:39;102297.59;;;14.24;67.77
60307;BME280;46155;52.364;6.580;2023-04-09T09:56:11;102292.38;;;14.12;64.97
60307;BME280;46155;52.364;6.580;2023-04-09T09:58:48;102299.84;;;14.31;66.14
60307;BME280;46155;52.364;6.580;2023-04-09T10:01:16;102298.97;;;14.44;65.83
60307;BME280;46155;52.364;6.580;2023-04-09T10:03:45;102297.34;;;14.46;61.60
60307;BME280;46155;52.364;6.580;2023-04-09T10:06:12;102300.81;;;14.20;62.80
60307;BME280;46155;52.364;6.580;2023-04-09T10:08:39;102294.47;;;14.04;65.39
60307;BME280;46155;52.364;6.580;2023-04-09T10:11:06;102288.47;;;14.07;64.61
60307;BME280;46155;52.364;6.580;2023-04-09T10:13:38;102283.09;;;14.05;62.07
60307;BME280;46155;52.364;6.580;2023-04-09T10:16:04;102287.72;;;13.96;64.24
60307;BME280;46155;52.364;6.580;2023-04-09T10:18:31;102281.22;;;13.91;66.56
60307;BME280;46155;52.364;6.580;2023-04-09T10:21:11;102291.00;;;14.31;65.21
60307;BME280;46155;52.364;6.580;2023-04-09T10:23:40;102278.06;;;14.60;63.21
60307;BME280;46155;52.364;6.580;2023-04-09T10:26:06;102273.34;;;15.08;66.63
60307;BME280;46155;52.364;6.580;2023-04-09T10:28:32;102273.66;;;15.13;56.84
60307;BME280;46155;52.364;6.580;2023-04-09T10:30:57;102265.19;;;14.78;57.47
60307;BME280;46155;52.364;6.580;2023-04-09T10:33:25;102277.22;;;14.48;62.28
60307;BME280;46155;52.364;6.580;2023-04-09T10:35:52;102276.63;;;14.39;63.43
60307;BME280;46155;52.364;6.580;2023-04-09T10:41:21;102266.22;;;14.80;65.51
60307;BME280;46155;52.364;6.580;2023-04-09T10:43:49;102270.28;;;14.62;61.89
60307;BME280;46155;52.364;6.580;2023-04-09T10:46:33;102267.31;;;14.84;62.02
60307;BME280;46155;52.364;6.580;2023-04-09T10:49:09;102261.75;;;14.93;60.58
60307;BME280;46155;52.364;6.580;2023-04-09T10:51:36;102254.44;;;14.89;58.19
60307;BME280;46155;52.364;6.580;2023-04-09T10:59:34;102245.19;;;14.69;59.96
60307;BME280;46155;52.364;6.580;2023-04-09T11:02:00;102235.91;;;14.62;59.74
60307;BME280;46155;52.364;6.580;2023-04-09T11:04:35;102239.78;;;14.80;57.44
60307;BME280;46155;52.364;6.580;2023-04-09T11:07:04;102232.78;;;14.94;63.49
60307;BME280;46155;52.364;6.580;2023-04-09T11:09:33;102232.94;;;15.24;60.01
60307;BME280;46155;52.364;6.580;2023-04-09T11:11:59;102233.00;;;15.39;59.65
60307;BME280;46155;52.364;6.580;2023-04-09T11:14:24;102234.56;;;15.64;57.64
60307;BME280;46155;52.364;6.580;2023-04-09T11:16:50;102234.69;;;15.52;54.95
60307;BME280;46155;52.364;6.580;2023-04-09T11:19:15;102236.69;;;15.28;55.29
60307;BME280;46155;52.364;6.580;2023-04-09T11:21:41;102230.22;;;14.96;55.65
60307;BME280;46155;52.364;6.580;2023-04-09T11:24:11;102219.63;;;15.09;58.43
60307;BME280;46155;52.364;6.580;2023-04-09T11:26:36;102223.88;;;15.34;58.41
60307;BME280;46155;52.364;6.580;2023-04-09T11:29:05;102226.50;;;15.34;61.58
60307;BME280;46155;52.364;6.580;2023-04-09T11:31:32;102217.41;;;14.89;55.37
60307;BME280;46155;52.364;6.580;2023-04-09T11:33:57;102217.22;;;14.86;55.84
60307;BME280;46155;52.364;6.580;2023-04-09T11:36:23;102217.09;;;14.97;55.57
60307;BME280;46155;52.364;6.580;2023-04-09T11:38:48;102220.06;;;14.89;56.38
60307;BME280;46155;52.364;6.580;2023-04-09T11:41:14;102220.75;;;14.73;57.07
60307;BME280;46155;52.364;6.580;2023-04-09T11:43:40;102214.16;;;14.66;57.75
60307;BME280;46155;52.364;6.580;2023-04-09T11:46:06;102212.31;;;14.78;54.98
60307;BME280;46155;52.364;6.580;2023-04-09T11:48:32;102205.50;;;15.09;58.67
60307;BME280;46155;52.364;6.580;2023-04-09T11:50:57;102208.09;;;15.22;54.85
60307;BME280;46155;52.364;6.580;2023-04-09T11:53:29;102206.00;;;15.03;50.45
60307;BME280;46155;52.364;6.580;2023-04-09T11:55:54;102202.97;;;14.84;52.17
60307;BME280;46155;52.364;6.580;2023-04-09T11:58:24;102196.03;;;14.99;53.38
60307;BME280;46155;52.364;6.580;2023-04-09T12:00:57;102202.53;;;15.18;51.63
60307;BME280;46155;52.364;6.580;2023-04-09T12:03:32;102202.72;;;15.21;53.18
60307;BME280;46155;52.364;6.580;2023-04-09T12:06:02;102204.75;;;15.25;50.39
60307;BME280;46155;52.364;6.580;2023-04-09T12:08:27;102199.06;;;15.05;49.02
60307;BME280;46155;52.364;6.580;2023-04-09T12:10:53;102200.34;;;14.97;50.69
60307;BME280;46155;52.364;6.580;2023-04-09T12:13:18;102196.22;;;15.15;50.12
60307;BME280;46155;52.364;6.580;2023-04-09T12:15:47;102191.38;;;15.08;49.74
60307;BME280;46155;52.364;6.580;2023-04-09T12:18:13;102196.81;;;15.25;51.53
60307;BME280;46155;52.364;6.580;2023-04-09T12:20:46;102189.16;;;15.29;49.89
60307;BME280;46155;52.364;6.580;2023-04-09T12:23:12;102200.66;;;15.30;51.25
60307;BME280;46155;52.364;6.580;2023-04-09T12:25:39;102195.38;;;15.30;50.32
60307;BME280;46155;52.364;6.580;2023-04-09T12:28:07;102200.47;;;15.27;51.78
60307;BME280;46155;52.364;6.580;2023-04-09T12:30:33;102200.50;;;15.13;50.31
60307;BME280;46155;52.364;6.580;2023-04-09T12:32:58;102200.59;;;15.15;52.29
60307;BME280;46155;52.364;6.580;2023-04-09T12:35:24;102203.84;;;15.11;50.92
60307;BME280;46155;52.364;6.580;2023-04-09T12:37:49;102201.00;;;15.21;52.06
60307;BME280;46155;52.364;6.580;2023-04-09T12:40:16;102203.13;;;15.13;50.61
60307;BME280;46155;52.364;6.580;2023-04-09T12:42:43;102195.03;;;14.97;51.59
60307;BME280;46155;52.364;6.580;2023-04-09T12:45:12;102197.50;;;14.80;51.57
60307;BME280;46155;52.364;6.580;2023-04-09T12:47:37;102195.75;;;14.81;50.98
60307;BME280;46155;52.364;6.580;2023-04-09T12:50:04;102185.19;;;14.94;51.68
60307;BME280;46155;52.364;6.580;2023-04-09T12:52:29;102184.97;;;14.91;51.49
60307;BME280;46155;52.364;6.580;2023-04-09T12:54:55;102181.63;;;14.80;54.01
60307;BME280;46155;52.364;6.580;2023-04-09T12:57:20;102178.88;;;14.79;55.07
60307;BME280;46155;52.364;6.580;2023-04-09T12:59:45;102181.63;;;14.80;53.06
60307;BME280;46155;52.364;6.580;2023-04-09T13:02:11;102177.56;;;14.72;54.86
60307;BME280;46155;52.364;6.580;2023-04-09T13:04:36;102166.59;;;14.66;55.34
60307;BME280;46155;52.364;6.580;2023-04-09T13:07:01;102161.25;;;14.53;52.20
60307;BME280;46155;52.364;6.580;2023-04-09T13:09:26;102164.22;;;14.44;53.54
60307;BME280;46155;52.364;6.580;2023-04-09T13:11:52;102164.09;;;14.56;53.45
60307;BME280;46155;52.364;6.580;2023-04-09T13:14:18;102169.63;;;14.72;53.95
60307;BME280;46155;52.364;6.580;2023-04-09T13:16:43;102155.91;;;14.78;52.63
60307;BME280;46155;52.364;6.580;2023-04-09T13:19:09;102158.44;;;14.76;53.02
60307;BME280;46155;52.364;6.580;2023-04-09T13:21:34;102157.81;;;14.67;52.35
60307;BME280;46155;52.364;6.580;2023-04-09T13:24:00;102154.88;;;14.62;50.82
60307;BME280;46155;52.364;6.580;2023-04-09T13:26:25;102165.03;;;14.56;52.46
60307;BME280;46155;52.364;6.580;2023-04-09T13:28:51;102156.38;;;14.45;50.94
60307;BME280;46155;52.364;6.580;2023-04-09T13:31:17;102158.22;;;14.46;51.08
60307;BME280;46155;52.364;6.580;2023-04-09T13:33:42;102159.97;;;14.46;52.16
60307;BME280;46155;52.364;6.580;2023-04-09T13:36:08;102151.53;;;14.65;53.63
60307;BME280;46155;52.364;6.580;2023-04-09T13:38:33;102154.19;;;14.65;51.82
60307;BME280;46155;52.364;6.580;2023-04-09T13:40:58;102149.47;;;14.88;54.59
60307;BME280;46155;52.364;6.580;2023-04-09T13:43:24;102158.03;;;14.97;51.16
60307;BME280;46155;52.364;6.580;2023-04-09T13:45:52;102152.50;;;14.94;51.05
60307;BME280;46155;52.364;6.580;2023-04-09T13:48:18;102157.41;;;14.88;52.57
60307;BME280;46155;52.364;6.580;2023-04-09T13:50:44;102150.66;;;15.06;49.45
60307;BME280;46155;52.364;6.580;2023-04-09T13:53:10;102150.47;;;14.90;51.62
60307;BME280;46155;52.364;6.580;2023-04-09T13:55:35;102141.16;;;14.82;50.31
60307;BME280;46155;52.364;6.580;2023-04-09T13:58:00;102138.72;;;14.71;51.01
60307;BME280;46155;52.364;6.580;2023-04-09T14:00:25;102136.69;;;14.67;49.89
60307;BME280;46155;52.364;6.580;2023-04-09T14:02:51;102136.50;;;14.64;52.12
60307;BME280;46155;52.364;6.580;2023-04-09T14:05:17;102121.22;;;14.46;52.53
60307;BME280;46155;52.364;6.580;2023-04-09T14:07:42;102124.25;;;14.53;53.13
60307;BME280;46155;52.364;6.580;2023-04-09T14:10:08;102130.97;;;14.61;52.39
60307;BME280;46155;52.364;6.580;2023-04-09T14:12:33;102138.53;;;14.68;52.82
60307;BME280;46155;52.364;6.580;2023-04-09T14:14:58;102137.06;;;14.60;53.47
60307;BME280;46155;52.364;6.580;2023-04-09T14:17:24;102129.66;;;14.54;54.25
60307;BME280;46155;52.364;6.580;2023-04-09T14:19:49;102124.25;;;14.26;52.42
60307;BME280;46155;52.364;6.580;2023-04-09T14:22:14;102115.34;;;14.10;52.91
60307;BME280;46155;52.364;6.580;2023-04-09T14:24:40;102119.47;;;14.07;53.47
60307;BME280;46155;52.364;6.580;2023-04-09T14:27:06;102118.34;;;14.03;54.06
60307;BME280;46155;52.364;6.580;2023-04-09T14:29:32;102124.66;;;14.05;53.01
60307;BME280;46155;52.364;6.580;2023-04-09T14:31:58;102116.94;;;14.08;52.51
60307;BME280;46155;52.364;6.580;2023-04-09T14:34:24;102098.84;;;14.01;53.40
60307;BME280;46155;52.364;6.580;2023-04-09T14:36:49;102110.41;;;14.03;53.49
60307;BME280;46155;52.364;6.580;2023-04-09T14:39:15;102100.19;;;14.08;53.48
60307;BME280;46155;52.364;6.580;2023-04-09T14:41:40;102110.16;;;14.25;52.89
60307;BME280;46155;52.364;6.580;2023-04-09T14:44:05;102106.78;;;14.41;52.38
60307;BME280;46155;52.364;6.580;2023-04-09T14:46:31;102104.03;;;14.40;52.78
60307;BME280;46155;52.364;6.580;2023-04-09T14:48:56;102108.31;;;14.51;52.43
60307;BME280;46155;52.364;6.580;2023-04-09T14:51:21;102110.47;;;14.43;50.71
60307;BME280;46155;52.364;6.580;2023-04-09T14:53:47;102109.03;;;14.35;51.66
60307;BME280;46155;52.364;6.580;2023-04-09T14:56:12;102109.63;;;14.31;52.36
60307;BME280;46155;52.364;6.580;2023-04-09T14:58:38;102104.75;;;14.37;52.07
60307;BME280;46155;52.364;6.580;2023-04-09T15:01:03;102103.13;;;14.53;52.14
60307;BME280;46155;52.364;6.580;2023-04-09T15:03:29;102104.53;;;14.61;51.86
60307;BME280;46155;52.364;6.580;2023-04-09T15:05:54;102093.78;;;14.58;50.78
60307;BME280;46155;52.364;6.580;2023-04-09T15:08:20;102088.09;;;14.52;50.03
60307;BME280;46155;52.364;6.580;2023-04-09T15:10:46;102091.94;;;14.57;51.40
60307;BME280;46155;52.364;6.580;2023-04-09T15:13:11;102082.41;;;14.45;51.75
60307;BME280;46155;52.364;6.580;2023-04-09T15:15:39;102071.94;;;14.34;51.70
60307;BME280;46155;52.364;6.580;2023-04-09T15:18:04;102070.91;;;14.32;52.34
60307;BME280;46155;52.364;6.580;2023-04-09T15:20:34;102080.16;;;14.38;52.01
60307;BME280;46155;52.364;6.580;2023-04-09T15:23:00;102063.91;;;14.45;51.96
60307;BME280;46155;52.364;6.580;2023-04-09T15:25:25;102069.72;;;14.53;51.40
60307;BME280;46155;52.364;6.580;2023-04-09T15:27:51;102065.84;;;14.48;51.04
60307;BME280;46155;52.364;6.580;2023-04-09T15:30:16;102069.78;;;14.68;51.64
60307;BME280;46155;52.364;6.580;2023-04-09T15:32:41;102078.94;;;14.73;50.09
60307;BME280;46155;52.364;6.580;2023-04-09T15:35:07;102085.31;;;14.77;51.27
60307;BME280;46155;52.364;6.580;2023-04-09T15:37:33;102076.25;;;14.87;50.57
60307;BME280;46155;52.364;6.580;2023-04-09T15:39:58;102068.94;;;14.83;50.37
60307;BME280;46155;52.364;6.580;2023-04-09T15:42:23;102068.03;;;14.82;51.25
60307;BME280;46155;52.364;6.580;2023-04-09T15:44:49;102058.19;;;14.79;50.88
60307;BME280;46155;52.364;6.580;2023-04-09T15:47:14;102068.28;;;14.72;49.96
60307;BME280;46155;52.364;6.580;2023-04-09T15:49:40;102060.41;;;14.60;50.68
60307;BME280;46155;52.364;6.580;2023-04-09T15:52:05;102067.16;;;14.55;51.49
60307;BME280;46155;52.364;6.580;2023-04-09T15:54:30;102061.88;;;14.55;50.89
60307;BME280;46155;52.364;6.580;2023-04-09T15:56:56;102050.38;;;14.54;50.22